Peshastin, WA (98847)

5:35 AM PDT on September 16, 2014 (GMT -0700)
Mountain Home Lodge Leavenworth, WA | Change Station
CLOSE
Current Station
Personal Weather Station
Location: Leavenworth, WA
Elevation: 2044 ft
Nearby Weather Stations

Elev 2044 ft 47.57 °N, 120.65 °W | Updated 43 seconds ago

Partly Cloudy
Partly Cloudy
56.5 °F
Feels Like 56.5 °F
N
1.0
Wind Variable Wind from ESE

Today
High -- | Low -- °F
--% Chance of Precip.
Yesterday
High -- | Low -- °F
Precip. -- in
6:41 AM 7:12 PM
Last Quarter, 46% visible
Pressure 29.87 in
Visibility 10.0 miles
Clouds Clear
Dew Point 37 °F
Humidity 49%
Rainfall 0.00 in
Snow Depth 0 in , 0 in , 0 in
UV 0 out of 12
Pollen 2.90 out of 12
Air Quality Not available.
Flu Activity Not available.
METAR KEAT 161155Z AUTO 29008KT 10SM CLR 16/03 A2989 RMK AO2 SLP115 T01610033 10217 20150 53000

More Conditions Fewer Conditions

Pressure 29.87 in
Visibility 10.0 miles
Clouds Clear
Dew Point 37 °F
Humidity 49%
Rainfall 0.00 in
Snow Depth 0 in , 0 in , 0 in
UV 0 out of 12
Pollen 2.90 out of 12
Air Quality Not available.
Flu Activity Not available.
METAR KEAT 161155Z AUTO 29008KT 10SM CLR 16/03 A2989 RMK AO2 SLP115 T01610033 10217 20150 53000

More Conditions Fewer Conditions

10-Day Weather Forecast

Almanac

Astronomy

Sep. 16, 2014 Rise Set
Actual Time 6:41 AM PDT 7:12 PM PDT
Civil Twilight 6:10 AM PDT 7:43 PM PDT
Nautical Twilight 5:33 AM PDT 8:19 PM PDT
Astronomical Twilight 4:55 AM PDT 8:57 PM PDT
Moon No Moon Rise 2:58 PM PDT
Length of Visible Light 13h 32m
Length of Day
12h 31m
Tomorrow will be 3m 23s shorter.
Last Quarter, 46% of the Moon is Illuminated
Today
Last Quarter
Sep 24
New
Oct 1
First Quarter
Oct 8
Full
Oct 15
Last Quarter

Today's Extremes

State Highs State Lows

Community

WunderPhotos

Upload Photos

1,753,754 photos uploaded!

Nearby

Snow Depth

Station Depth Elevation
Mf Nooksack 0 in 4980 ft
Bunchgrass Meadow 0 in 5000 ft
Alpine Meadows 0 in 3500 ft
Stevens Pass 0 in 4070 ft
Pope Ridge 0 in 3540 ft

Earthquake Activity

City Distance Mag. Time & Date
No recent earthquake activity has been reported nearby.
Minimum magnitude displayed is 2.5.

Coastal Water Temperatures

Place Temperature
No Stations Reporting

Nearby Weather Stations